Time;durP1;ratioP1;P1;durP2;ratioP2;P2;SDS_P1;SDS_P2;PMS_P1;PMS_P2;Temp;Humidity;BMP_temperature;BMP_pressure;BME280_temperature;BME280_humidity;BME280_pressure;Samples;Min_cycle;Max_cycle;Signal;HPM_P1;HPM_P2
2024/03/28 00:01:01;;;;;;;;;;;;;;;20.53;30.07;97214.44;5039688;28;1040;-72
2024/03/28 00:03:27;;;;;;;;;;;;;;;20.47;30.10;97223.97;5039975;28;1114;-73
2024/03/28 00:05:56;;;;;;;;;;;;;;;20.84;29.63;97227.13;5040286;28;893;-73
2024/03/28 00:08:22;;;;;;;;;;;;;;;20.92;29.50;97217.91;5039889;28;957;-73
2024/03/28 00:10:50;;;;;;;;;;;;;;;20.42;30.04;97210.38;5039956;28;947;-72
2024/03/28 00:13:16;;;;;;;;;;;;;;;20.62;29.79;97210.88;5023277;28;1292;-73
2024/03/28 00:15:42;;;;;;;;;;;;;;;20.59;29.74;97216.69;5018784;28;1902;-73
2024/03/28 00:18:07;;;;;;;;;;;;;;;20.64;29.57;97208.41;5035261;28;1233;-72
2024/03/28 00:20:33;;;;;;;;;;;;;;;20.84;29.37;97210.16;5018714;28;1011;-73
2024/03/28 00:22:59;;;;;;;;;;;;;;;20.47;30.20;97195.69;5018576;28;945;-73
2024/03/28 00:25:24;;;;;;;;;;;;;;;20.57;30.33;97196.53;5035191;28;946;-73
2024/03/28 00:27:50;;;;;;;;;;;;;;;20.96;29.40;97195.16;5034862;28;951;-73
2024/03/28 00:30:15;;;;;;;;;;;;;;;20.60;29.92;97182.31;5034977;28;1053;-72
2024/03/28 00:32:41;;;;;;;;;;;;;;;20.73;29.75;97185.88;5035252;28;924;-73
2024/03/28 00:35:07;;;;;;;;;;;;;;;20.63;29.57;97183.44;5018438;28;1898;-73
2024/03/28 00:37:32;;;;;;;;;;;;;;;20.72;29.27;97180.66;5018254;28;1133;-73
2024/03/28 00:39:58;;;;;;;;;;;;;;;20.58;29.44;97170.69;4995368;28;953;-73
2024/03/28 00:42:23;;;;;;;;;;;;;;;20.44;29.70;97176.78;4995320;28;956;-74
2024/03/28 00:44:49;;;;;;;;;;;;;;;20.71;29.45;97179.88;4962624;28;1055;-71
2024/03/28 00:47:14;;;;;;;;;;;;;;;20.67;30.04;97169.94;4977545;28;1500;-72
2024/03/28 00:49:40;;;;;;;;;;;;;;;20.85;29.61;97166.47;5015135;28;985;-71
2024/03/28 00:52:05;;;;;;;;;;;;;;;20.97;29.35;97168.44;4998521;28;966;-71
2024/03/28 00:54:31;;;;;;;;;;;;;;;20.81;29.83;97161.72;4998408;28;1902;-72
2024/03/28 00:56:56;;;;;;;;;;;;;;;20.90;29.29;97168.72;4998633;28;910;-71
2024/03/28 00:59:22;;;;;;;;;;;;;;;20.81;29.61;97161.72;4998400;28;1062;-71
2024/03/28 01:01:48;;;;;;;;;;;;;;;20.45;29.75;97167.06;4998381;28;1226;-71
2024/03/28 01:04:15;;;;;;;;;;;;;;;20.39;30.26;97169.69;4982196;28;1070;-71
2024/03/28 01:06:40;;;;;;;;;;;;;;;20.55;30.28;97163.88;4981578;28;949;-71
2024/03/28 01:09:06;;;;;;;;;;;;;;;20.54;30.20;97165.13;4998096;28;975;-72
2024/03/28 01:11:31;;;;;;;;;;;;;;;20.70;29.70;97161.34;5045896;28;956;-71
2024/03/28 01:13:57;;;;;;;;;;;;;;;20.88;29.75;97159.88;5021325;28;1011;-71
2024/03/28 01:16:22;;;;;;;;;;;;;;;20.70;29.62;97158.50;5022417;28;1988;-71
2024/03/28 01:18:48;;;;;;;;;;;;;;;20.84;29.23;97159.25;5056457;28;1046;-72
2024/03/28 01:21:13;;;;;;;;;;;;;;;20.69;29.52;97154.13;5038778;28;914;-71
2024/03/28 01:23:39;;;;;;;;;;;;;;;20.70;29.49;97160.56;5021936;28;947;-71
2024/03/28 01:26:04;;;;;;;;;;;;;;;20.79;29.45;97158.59;5056342;28;917;-72
2024/03/28 01:28:30;;;;;;;;;;;;;;;20.90;29.60;97158.19;5038758;28;946;-71
2024/03/28 01:31:01;;;;;;;;;;;;;;;20.85;29.66;97155.16;5038562;28;940;-71
2024/03/28 01:33:27;;;;;;;;;;;;;;;21.06;29.33;97160.81;5022456;28;1285;-71
2024/03/28 01:35:53;;;;;;;;;;;;;;;20.70;29.63;97150.03;5021764;28;1910;-71
2024/03/28 01:38:18;;;;;;;;;;;;;;;20.57;29.75;97145.69;5022171;28;1002;-71
2024/03/28 01:40:44;;;;;;;;;;;;;;;20.67;29.20;97139.63;5038524;28;1096;-71
2024/03/28 01:43:09;;;;;;;;;;;;;;;20.41;29.63;97141.75;5056427;28;883;-73
2024/03/28 01:45:35;;;;;;;;;;;;;;;20.56;30.21;97136.41;5038596;28;1056;-72
2024/03/28 01:48:00;;;;;;;;;;;;;;;20.67;29.99;97139.63;5056429;28;874;-72
2024/03/28 01:50:26;;;;;;;;;;;;;;;20.69;29.98;97139.97;5021631;28;1034;-72
2024/03/28 01:52:52;;;;;;;;;;;;;;;20.81;29.75;97136.28;5038487;28;961;-72
2024/03/28 01:55:17;;;;;;;;;;;;;;;20.81;30.04;97138.34;5005688;28;1967;-72
2024/03/28 01:57:43;;;;;;;;;;;;;;;20.82;29.72;97134.25;5038421;28;987;-72
2024/03/28 02:00:09;;;;;;;;;;;;;;;20.75;29.59;97138.13;5005686;28;1140;-73
2024/03/28 02:02:37;;;;;;;;;;;;;;;20.84;29.13;97137.41;5038400;28;966;-71
2024/03/28 02:05:03;;;;;;;;;;;;;;;20.63;29.78;97130.50;5021850;28;1158;-72
2024/03/28 02:07:29;;;;;;;;;;;;;;;20.47;30.02;97133.53;5021555;28;860;-72
2024/03/28 02:09:54;;;;;;;;;;;;;;;20.54;30.18;97134.06;5038374;28;1181;-72
2024/03/28 02:12:20;;;;;;;;;;;;;;;20.61;29.78;97133.00;5021576;28;1206;-72
2024/03/28 02:14:45;;;;;;;;;;;;;;;20.58;29.94;97133.94;5038341;28;1973;-72
2024/03/28 02:17:12;;;;;;;;;;;;;;;20.66;30.10;97126.75;5056010;28;912;-73
2024/03/28 02:19:37;;;;;;;;;;;;;;;20.60;30.34;97128.59;5059409;28;900;-72
2024/03/28 02:22:03;;;;;;;;;;;;;;;20.75;30.01;97134.53;5041678;28;928;-72
2024/03/28 02:24:29;;;;;;;;;;;;;;;20.65;29.96;97130.06;5041605;28;935;-72
2024/03/28 02:26:54;;;;;;;;;;;;;;;20.46;30.28;97123.41;5009030;28;1350;-72
2024/03/28 02:29:20;;;;;;;;;;;;;;;20.67;29.83;97119.06;5059583;28;975;-73
2024/03/28 02:31:45;;;;;;;;;;;;;;;20.83;29.38;97130.19;5041707;28;1185;-72
2024/03/28 02:34:11;;;;;;;;;;;;;;;20.47;30.17;97125.06;5024964;28;1298;-72
2024/03/28 02:36:36;;;;;;;;;;;;;;;20.71;29.77;97117.69;5041556;28;1902;-72
2024/03/28 02:39:02;;;;;;;;;;;;;;;20.84;29.98;97114.81;5024955;28;953;-73
2024/03/28 02:41:27;;;;;;;;;;;;;;;21.02;29.42;97108.47;5020534;28;1137;-72
2024/03/28 02:43:53;;;;;;;;;;;;;;;20.70;29.63;97104.81;5037127;28;1610;-72
2024/03/28 02:46:19;;;;;;;;;;;;;;;20.84;29.38;97108.38;5020438;28;1111;-73
2024/03/28 02:48:44;;;;;;;;;;;;;;;20.62;29.77;97109.13;5020699;28;1049;-72
2024/03/28 02:51:10;;;;;;;;;;;;;;;20.66;29.51;97100.53;5036704;28;1082;-72
2024/03/28 02:53:35;;;;;;;;;;;;;;;20.76;29.80;97102.97;5037119;28;1118;-73
2024/03/28 02:56:01;;;;;;;;;;;;;;;20.61;30.26;97101.91;5020370;28;1986;-73
2024/03/28 02:58:27;;;;;;;;;;;;;;;20.64;30.23;97098.16;5020055;28;1057;-72
2024/03/28 03:00:53;;;;;;;;;;;;;;;20.66;29.93;97092.84;5004176;28;1012;-72
2024/03/28 03:03:18;;;;;;;;;;;;;;;20.84;29.83;97091.41;5036736;28;1035;-73
2024/03/28 03:05:44;;;;;;;;;;;;;;;20.84;29.46;97085.75;5020406;28;1002;-72
2024/03/28 03:08:11;;;;;;;;;;;;;;;20.45;30.20;97082.28;5033622;28;1054;-72
2024/03/28 03:10:37;;;;;;;;;;;;;;;20.57;29.80;97089.16;5020250;28;1031;-72
2024/03/28 03:13:02;;;;;;;;;;;;;;;20.40;29.99;97086.50;5052873;28;912;-72
2024/03/28 03:15:28;;;;;;;;;;;;;;;20.51;30.25;97091.78;5040754;28;1954;-72
2024/03/28 03:17:54;;;;;;;;;;;;;;;20.41;30.48;97087.28;5058257;28;881;-72
2024/03/28 03:20:20;;;;;;;;;;;;;;;20.39;30.69;97073.63;5058764;28;971;-72
2024/03/28 03:23:03;;;;;;;;;;;;;;;20.48;30.53;97081.41;5041190;28;897;-72
2024/03/28 03:25:28;;;;;;;;;;;;;;;20.81;30.06;97093.88;5026661;28;1151;-72
2024/03/28 03:36:06;;;;;;;;;;;;;;;20.52;30.31;97091.34;5026415;28;1957;-73
2024/03/28 03:38:32;;;;;;;;;;;;;;;20.51;30.45;97086.13;5023988;28;940;-72
2024/03/28 03:40:59;;;;;;;;;;;;;;;20.67;30.36;97083.09;5006914;28;1095;-72
2024/03/28 03:43:25;;;;;;;;;;;;;;;20.89;29.99;97073.84;5040244;28;1093;-72
2024/03/28 03:45:50;;;;;;;;;;;;;;;20.84;30.12;97074.44;5040335;28;947;-72
2024/03/28 03:48:16;;;;;;;;;;;;;;;20.46;30.42;97069.72;5023551;28;957;-72
2024/03/28 03:50:41;;;;;;;;;;;;;;;20.39;30.42;97067.19;5040284;28;1074;-72
2024/03/28 03:53:07;;;;;;;;;;;;;;;20.72;29.82;97059.88;5058032;28;985;-72
2024/03/28 03:55:32;;;;;;;;;;;;;;;20.59;30.30;97064.84;5039831;28;1922;-72
2024/03/28 03:57:58;;;;;;;;;;;;;;;20.61;30.19;97053.84;5022766;28;1015;-72
2024/03/28 04:00:23;;;;;;;;;;;;;;;20.79;30.42;97065.28;5039676;28;1188;-72
2024/03/28 04:02:49;;;;;;;;;;;;;;;20.55;30.50;97064.97;5015564;28;1126;-72
2024/03/28 04:05:14;;;;;;;;;;;;;;;20.61;30.58;97079.28;5016110;28;996;-72
2024/03/28 04:07:40;;;;;;;;;;;;;;;20.77;30.18;97076.25;4983137;28;1073;-73
2024/03/28 04:10:06;;;;;;;;;;;;;;;20.60;30.52;97069.25;4999145;28;1042;-72
2024/03/28 04:12:31;;;;;;;;;;;;;;;20.75;30.08;97084.41;4999277;28;1176;-72
2024/03/28 04:14:57;;;;;;;;;;;;;;;20.55;30.21;97078.31;4999594;28;1906;-72
2024/03/28 04:17:22;;;;;;;;;;;;;;;20.60;30.54;97072.06;4999265;28;1011;-72
2024/03/28 04:19:48;;;;;;;;;;;;;;;20.81;30.26;97088.22;4983287;28;1097;-72
2024/03/28 04:22:13;;;;;;;;;;;;;;;20.62;30.74;97092.16;5015235;28;1068;-72
2024/03/28 04:24:39;;;;;;;;;;;;;;;20.90;30.16;97100.84;4999236;28;865;-72
2024/03/28 04:27:04;;;;;;;;;;;;;;;20.46;30.60;97084.69;5015379;28;1081;-72
2024/03/28 04:29:30;;;;;;;;;;;;;;;20.93;29.85;97091.44;4998787;28;1147;-72
2024/03/28 04:31:56;;;;;;;;;;;;;;;21.08;29.47;97092.47;4998761;28;1254;-73
2024/03/28 04:34:23;;;;;;;;;;;;;;;20.93;29.67;97097.09;5022551;28;1325;-73
2024/03/28 04:36:49;;;;;;;;;;;;;;;20.92;29.43;97093.47;5019434;28;1971;-72
2024/03/28 04:39:15;;;;;;;;;;;;;;;20.93;29.75;97082.94;5038262;28;1533;-72
2024/03/28 04:41:40;;;;;;;;;;;;;;;20.54;30.78;97085.22;5058304;28;1091;-72
2024/03/28 04:44:06;;;;;;;;;;;;;;;20.54;30.64;97088.84;5059155;28;994;-72
2024/03/28 04:46:32;;;;;;;;;;;;;;;20.60;30.94;97094.69;5042857;28;1174;-72
2024/03/28 04:48:57;;;;;;;;;;;;;;;20.71;30.61;97095.06;5057370;28;1588;-72
2024/03/28 04:51:24;;;;;;;;;;;;;;;20.74;30.32;97088.50;4998319;28;1416;-72
2024/03/28 04:53:49;;;;;;;;;;;;;;;20.71;30.35;97094.28;4982246;28;1023;-72
2024/03/28 04:56:16;;;;;;;;;;;;;;;20.43;30.50;97090.44;4980383;28;1973;-72
2024/03/28 04:58:41;;;;;;;;;;;;;;;20.72;30.36;97085.34;4987673;28;1463;-72
2024/03/28 05:01:06;;;;;;;;;;;;;;;20.70;30.31;97093.50;4995249;28;984;-72
2024/03/28 05:03:32;;;;;;;;;;;;;;;20.61;30.92;97096.25;4979047;28;1013;-72
2024/03/28 05:05:58;;;;;;;;;;;;;;;20.69;30.56;97091.94;4992839;28;1358;-72
2024/03/28 05:08:24;;;;;;;;;;;;;;;20.72;30.83;97093.03;4998542;28;990;-72
2024/03/28 05:10:49;;;;;;;;;;;;;;;20.89;30.40;97090.81;4998292;28;1284;-72
2024/03/28 05:13:15;;;;;;;;;;;;;;;21.02;30.15;97078.13;4998366;28;949;-72
2024/03/28 05:15:40;;;;;;;;;;;;;;;20.78;30.27;97077.06;4979993;28;1977;-73
2024/03/28 05:18:06;;;;;;;;;;;;;;;21.10;29.58;97078.66;4978573;28;1177;-73
2024/03/28 05:20:31;;;;;;;;;;;;;;;20.55;30.74;97090.41;4995237;28;1000;-72
2024/03/28 05:22:57;;;;;;;;;;;;;;;20.64;30.83;97095.34;5009573;28;1077;-72
2024/03/28 05:25:23;;;;;;;;;;;;;;;20.65;30.91;97096.13;4994469;28;1378;-73
2024/03/28 05:27:48;;;;;;;;;;;;;;;20.94;30.26;97099.47;5010412;28;1325;-72
2024/03/28 05:30:14;;;;;;;;;;;;;;;20.87;30.30;97105.38;4994672;28;1367;-72
2024/03/28 05:32:40;;;;;;;;;;;;;;;20.81;30.43;97110.84;4978635;28;1027;-72
2024/03/28 05:35:05;;;;;;;;;;;;;;;20.78;30.34;97106.13;4978429;28;1895;-72
2024/03/28 05:37:31;;;;;;;;;;;;;;;20.94;30.23;97104.34;4989650;28;1611;-73
2024/03/28 05:39:56;;;;;;;;;;;;;;;20.64;30.35;97103.03;5014436;28;1305;-73
2024/03/28 05:42:22;;;;;;;;;;;;;;;20.82;30.43;97111.63;5014107;28;964;-73
2024/03/28 05:44:47;;;;;;;;;;;;;;;20.87;30.04;97096.91;5014384;28;915;-72
2024/03/28 05:47:13;;;;;;;;;;;;;;;20.48;31.09;97089.91;5011845;28;1468;-73
2024/03/28 05:49:38;;;;;;;;;;;;;;;20.87;30.44;97079.16;4997604;28;899;-72
2024/03/28 05:52:04;;;;;;;;;;;;;;;20.94;30.34;97081.72;5014242;28;965;-72
2024/03/28 05:54:29;;;;;;;;;;;;;;;20.73;30.54;97069.97;4983055;28;1191;-72
2024/03/28 05:56:55;;;;;;;;;;;;;;;20.99;29.99;97075.47;5038231;28;1922;-72
2024/03/28 05:59:22;;;;;;;;;;;;;;;20.63;30.80;97088.13;5033734;28;1414;-72
2024/03/28 06:01:48;;;;;;;;;;;;;;;20.58;30.85;97096.41;5021161;28;1000;-72
2024/03/28 06:04:13;;;;;;;;;;;;;;;20.70;30.57;97110.47;5021160;28;1022;-72
2024/03/28 06:06:39;;;;;;;;;;;;;;;20.71;30.38;97111.25;5021181;28;1203;-73
2024/03/28 06:09:04;;;;;;;;;;;;;;;20.61;30.95;97113.22;5035669;28;1340;-72
2024/03/28 06:11:30;;;;;;;;;;;;;;;20.73;31.05;97109.53;5035121;28;1279;-73
2024/03/28 06:14:05;;;;;;;;;;;;;;;20.83;30.84;97107.56;5036866;28;1489;-72
2024/03/28 06:16:31;;;;;;;;;;;;;;;20.83;30.78;97101.91;5021110;28;1973;-72
2024/03/28 06:18:56;;;;;;;;;;;;;;;20.52;31.28;97087.69;5004707;28;1108;-73
2024/03/28 06:21:22;;;;;;;;;;;;;;;20.79;30.93;97096.41;5003282;28;1315;-72
2024/03/28 06:23:47;;;;;;;;;;;;;;;20.55;30.82;97098.88;5021059;28;1032;-72
2024/03/28 06:26:13;;;;;;;;;;;;;;;20.80;30.42;97106.44;5004486;28;1371;-72
2024/03/28 06:28:38;;;;;;;;;;;;;;;20.54;31.33;97102.19;5004568;28;968;-72
2024/03/28 06:31:04;;;;;;;;;;;;;;;20.62;31.15;97108.34;5009321;28;1358;-72
2024/03/28 06:33:29;;;;;;;;;;;;;;;20.73;30.93;97108.75;5061139;28;962;-72
2024/03/28 06:35:55;;;;;;;;;;;;;;;20.65;31.39;97118.75;5079222;28;1971;-72
2024/03/28 06:38:21;;;;;;;;;;;;;;;20.86;30.92;97122.81;5044849;28;940;-73
2024/03/28 06:40:46;;;;;;;;;;;;;;;20.69;30.80;97117.38;5060520;28;1281;-72
2024/03/28 06:43:12;;;;;;;;;;;;;;;20.75;30.77;97114.72;5044881;28;970;-73
2024/03/28 06:45:37;;;;;;;;;;;;;;;20.74;30.51;97119.59;5028496;28;1287;-72
2024/03/28 06:48:04;;;;;;;;;;;;;;;20.77;30.77;97124.31;5017182;28;1018;-72
2024/03/28 06:50:29;;;;;;;;;;;;;;;20.67;30.86;97116.22;5000878;28;950;-73
2024/03/28 06:52:55;;;;;;;;;;;;;;;20.59;31.43;97112.91;4998448;28;1496;-72
2024/03/28 06:55:20;;;;;;;;;;;;;;;20.64;31.34;97122.81;5000834;28;1910;-72
2024/03/28 06:57:46;;;;;;;;;;;;;;;20.81;31.02;97122.16;5017195;28;966;-72
2024/03/28 07:00:12;;;;;;;;;;;;;;;20.78;30.86;97128.75;5017355;28;1112;-72
2024/03/28 07:02:37;;;;;;;;;;;;;;;20.94;30.71;97135.44;4982183;28;1330;-72
2024/03/28 07:05:03;;;;;;;;;;;;;;;20.88;30.78;97142.91;4937414;29;1584;-72
2024/03/28 07:07:29;;;;;;;;;;;;;;;20.85;30.64;97132.56;4938984;29;1222;-72
2024/03/28 07:09:55;;;;;;;;;;;;;;;20.80;30.49;97125.44;4939132;29;1024;-72
2024/03/28 07:12:21;;;;;;;;;;;;;;;20.67;30.57;97122.66;4935340;29;1451;-72
2024/03/28 07:14:47;;;;;;;;;;;;;;;20.63;30.85;97124.88;4935690;29;1899;-73
2024/03/28 07:17:12;;;;;;;;;;;;;;;20.63;30.58;97139.00;4919877;29;953;-72
2024/03/28 07:19:38;;;;;;;;;;;;;;;20.51;30.99;97137.00;4967522;28;1004;-72
2024/03/28 07:22:03;;;;;;;;;;;;;;;20.68;31.44;97124.28;4997949;28;1470;-72
2024/03/28 07:24:29;;;;;;;;;;;;;;;20.67;31.52;97136.81;4981590;28;1453;-72
2024/03/28 07:26:54;;;;;;;;;;;;;;;20.42;31.72;97139.75;4977235;28;954;-72
2024/03/28 07:29:20;;;;;;;;;;;;;;;20.76;30.94;97147.41;4945001;28;1145;-72
2024/03/28 07:31:45;;;;;;;;;;;;;;;20.62;31.09;97140.22;4977531;28;991;-72
2024/03/28 07:34:12;;;;;;;;;;;;;;;20.67;31.06;97156.59;4971177;28;1649;-72
2024/03/28 07:36:38;;;;;;;;;;;;;;;20.71;30.84;97145.94;5025906;28;1906;-72
2024/03/28 07:39:04;;;;;;;;;;;;;;;20.54;31.24;97148.19;5002972;28;1357;-73
2024/03/28 07:41:30;;;;;;;;;;;;;;;20.14;31.81;97153.59;5036389;28;1035;-72
2024/03/28 07:43:55;;;;;;;;;;;;;;;20.35;31.74;97168.22;5009481;28;1483;-73
2024/03/28 07:46:21;;;;;;;;;;;;;;;20.68;31.21;97163.06;5016418;28;1016;-72
2024/03/28 07:48:46;;;;;;;;;;;;;;;20.70;31.48;97161.34;4999824;28;1000;-72
2024/03/28 07:51:12;;;;;;;;;;;;;;;20.71;31.48;97168.56;4983303;28;1252;-73
2024/03/28 07:53:38;;;;;;;;;;;;;;;20.85;31.25;97160.81;5004186;28;1432;-72
2024/03/28 07:56:04;;;;;;;;;;;;;;;20.90;30.98;97163.84;5049727;28;1975;-72
2024/03/28 07:58:30;;;;;;;;;;;;;;;20.86;30.97;97162.41;5059832;28;1244;-72
2024/03/28 08:01:02;;;;;;;;;;;;;;;20.87;30.79;97149.84;5043191;28;1121;-72
2024/03/28 08:03:28;;;;;;;;;;;;;;;20.94;30.49;97160.91;5035820;28;1465;-73
2024/03/28 08:05:53;;;;;;;;;;;;;;;20.91;30.74;97153.31;5042386;28;1444;-72
2024/03/28 08:08:19;;;;;;;;;;;;;;;20.63;31.17;97150.31;5039985;28;952;-72
2024/03/28 08:10:44;;;;;;;;;;;;;;;20.85;30.65;97153.13;5038953;28;1671;-72
2024/03/28 08:13:10;;;;;;;;;;;;;;;20.72;31.15;97158.84;5039624;28;945;-72
2024/03/28 08:15:36;;;;;;;;;;;;;;;20.70;31.50;97144.38;5039524;28;1910;-73
2024/03/28 08:18:01;;;;;;;;;;;;;;;20.97;30.99;97140.94;5057712;28;915;-73
2024/03/28 08:20:28;;;;;;;;;;;;;;;20.49;31.77;97134.63;5039570;28;1012;-72
2024/03/28 08:22:53;;;;;;;;;;;;;;;20.91;30.60;97150.50;5023474;28;1725;-72
2024/03/28 08:25:19;;;;;;;;;;;;;;;20.93;30.50;97145.16;5039933;28;1043;-73
2024/03/28 08:27:44;;;;;;;;;;;;;;;20.82;30.93;97145.56;4992403;28;1307;-72
2024/03/28 08:30:11;;;;;;;;;;;;;;;20.84;30.66;97154.38;4997716;28;1011;-72
2024/03/28 08:32:37;;;;;;;;;;;;;;;20.89;30.58;97139.66;5014126;28;1598;-73
2024/03/28 08:35:02;;;;;;;;;;;;;;;20.83;31.27;97138.69;5031211;28;1975;-72
2024/03/28 08:37:28;;;;;;;;;;;;;;;20.72;31.24;97119.25;5019033;28;1836;-72
2024/03/28 08:39:53;;;;;;;;;;;;;;;20.60;31.79;97125.78;5015317;28;1039;-72
2024/03/28 08:42:19;;;;;;;;;;;;;;;20.91;30.98;97122.22;4998870;28;1609;-72
2024/03/28 08:44:44;;;;;;;;;;;;;;;21.00;30.88;97125.91;4982223;28;954;-73
2024/03/28 08:47:11;;;;;;;;;;;;;;;20.61;31.37;97130.16;5015294;28;1027;-72
2024/03/28 08:49:38;;;;;;;;;;;;;;;20.91;30.53;97136.34;5015055;28;1070;-72
2024/03/28 08:52:04;;;;;;;;;;;;;;;20.81;30.51;97133.47;4998482;28;947;-72
2024/03/28 08:54:29;;;;;;;;;;;;;;;20.87;30.91;97118.72;4998371;28;1531;-72
2024/03/28 08:56:55;;;;;;;;;;;;;;;20.65;30.68;97125.19;5014629;28;1983;-72
2024/03/28 08:59:20;;;;;;;;;;;;;;;20.72;30.84;97133.38;4999842;28;1239;-72
2024/03/28 09:01:46;;;;;;;;;;;;;;;20.75;30.73;97131.69;4994927;28;1098;-72
2024/03/28 09:04:17;;;;;;;;;;;;;;;20.88;30.92;97142.91;4999249;28;950;-72
2024/03/28 09:06:43;;;;;;;;;;;;;;;20.83;31.25;97140.69;5018835;28;1468;-72
2024/03/28 09:09:10;;;;;;;;;;;;;;;20.61;31.70;97152.78;5048218;28;1460;-73
2024/03/28 09:11:40;;;;;;;;;;;;;;;20.84;31.00;97157.22;5053936;28;1458;-72
2024/03/28 09:14:06;;;;;;;;;;;;;;;21.07;30.55;97167.25;5050786;28;1369;-73
2024/03/28 09:16:34;;;;;;;;;;;;;;;20.65;30.88;97170.41;5005757;28;1898;-72
2024/03/28 09:19:03;;;;;;;;;;;;;;;20.52;31.15;97172.47;5055942;28;958;-72
2024/03/28 09:21:29;;;;;;;;;;;;;;;20.98;30.41;97170.81;5038658;28;1702;-72
2024/03/28 09:23:55;;;;;;;;;;;;;;;21.03;30.15;97183.56;5056347;28;1030;-72
2024/03/28 09:26:20;;;;;;;;;;;;;;;20.93;30.48;97179.09;5056538;28;981;-72
2024/03/28 09:28:48;;;;;;;;;;;;;;;20.84;30.42;97170.56;5055845;28;973;-72
2024/03/28 09:31:14;;;;;;;;;;;;;;;20.64;30.76;97174.50;5038920;28;1110;-72
2024/03/28 09:33:39;;;;;;;;;;;;;;;20.70;31.13;97175.47;5056316;28;1693;-73
2024/03/28 09:36:05;;;;;;;;;;;;;;;20.47;31.67;97190.03;5037031;28;1975;-72
2024/03/28 09:38:30;;;;;;;;;;;;;;;20.63;31.74;97189.09;5055916;28;878;-72
2024/03/28 09:40:56;;;;;;;;;;;;;;;20.77;31.17;97200.66;5038608;28;1019;-72
2024/03/28 09:43:22;;;;;;;;;;;;;;;20.84;31.43;97198.84;5056034;28;959;-73
2024/03/28 09:45:47;;;;;;;;;;;;;;;21.14;30.60;97202.97;5013990;28;982;-72
2024/03/28 09:48:16;;;;;;;;;;;;;;;21.11;30.59;97198.25;4997825;28;961;-72
2024/03/28 09:50:41;;;;;;;;;;;;;;;20.95;30.51;97204.88;5014315;28;1066;-72
2024/03/28 09:53:09;;;;;;;;;;;;;;;20.77;30.63;97211.97;4997972;28;1362;-72
2024/03/28 09:55:35;;;;;;;;;;;;;;;20.67;30.87;97213.13;5014104;28;1902;-72
2024/03/28 09:58:02;;;;;;;;;;;;;;;20.66;31.00;97217.22;5013145;28;1483;-73
2024/03/28 10:00:28;;;;;;;;;;;;;;;20.74;31.32;97212.91;4955374;29;1640;-72
2024/03/28 10:02:57;;;;;;;;;;;;;;;20.79;31.19;97214.34;4940023;29;1138;-72
2024/03/28 10:05:24;;;;;;;;;;;;;;;21.01;30.94;97208.69;4940140;29;1506;-72
2024/03/28 10:07:49;;;;;;;;;;;;;;;20.72;31.38;97215.38;4956042;29;1073;-72
2024/03/28 10:10:15;;;;;;;;;;;;;;;20.59;31.44;97206.16;4930893;29;1183;-73
2024/03/28 10:12:54;;;;;;;;;;;;;;;21.05;30.54;97201.66;4939812;29;1102;-72
2024/03/28 10:15:20;;;;;;;;;;;;;;;20.93;30.61;97196.06;4939858;29;1981;-72
2024/03/28 10:17:46;;;;;;;;;;;;;;;21.07;30.26;97201.19;4958859;28;956;-73
2024/03/28 10:20:13;;;;;;;;;;;;;;;20.88;30.70;97205.13;4958768;28;1152;-72
2024/03/28 10:22:52;;;;;;;;;;;;;;;20.76;30.75;97199.06;4958812;28;974;-72
2024/03/28 10:25:18;;;;;;;;;;;;;;;20.68;30.76;97202.63;4959833;28;984;-72
2024/03/28 10:27:43;;;;;;;;;;;;;;;20.69;31.39;97202.16;4974428;28;1027;-72
2024/03/28 10:30:11;;;;;;;;;;;;;;;20.46;31.95;97206.19;4958973;28;1019;-73
2024/03/28 10:32:37;;;;;;;;;;;;;;;20.64;31.89;97202.75;4993800;28;1496;-72
2024/03/28 10:35:03;;;;;;;;;;;;;;;20.93;31.11;97207.38;4997656;28;1906;-72
2024/03/28 10:37:29;;;;;;;;;;;;;;;20.79;31.30;97203.81;4997514;28;1066;-72
2024/03/28 10:39:54;;;;;;;;;;;;;;;20.99;30.95;97194.25;4998793;28;1044;-73
2024/03/28 10:42:20;;;;;;;;;;;;;;;20.59;31.44;97177.91;5024695;28;1353;-72
2024/03/28 10:44:46;;;;;;;;;;;;;;;20.63;31.48;97177.78;5020676;28;1022;-72
2024/03/28 10:47:12;;;;;;;;;;;;;;;20.76;31.01;97167.97;5020187;28;1427;-73
2024/03/28 10:49:40;;;;;;;;;;;;;;;20.84;30.79;97173.41;5020437;28;1215;-72
2024/03/28 10:52:07;;;;;;;;;;;;;;;20.80;30.89;97171.47;5001648;28;1496;-72
2024/03/28 10:54:36;;;;;;;;;;;;;;;20.46;31.45;97158.16;5003715;28;2041;-72
2024/03/28 10:57:05;;;;;;;;;;;;;;;20.41;32.13;97172.81;5025983;28;1910;-72
2024/03/28 10:59:31;;;;;;;;;;;;;;;20.56;31.79;97156.19;5040873;28;1283;-72
2024/03/28 11:01:56;;;;;;;;;;;;;;;20.70;31.74;97169.81;5044630;28;1389;-72
2024/03/28 11:04:22;;;;;;;;;;;;;;;20.84;31.50;97170.56;5061348;28;912;-72
2024/03/28 11:06:48;;;;;;;;;;;;;;;20.56;31.74;97156.19;5044075;28;1141;-72
2024/03/28 11:09:13;;;;;;;;;;;;;;;20.91;30.99;97156.16;5060634;28;935;-72
2024/03/28 11:11:39;;;;;;;;;;;;;;;20.94;31.01;97169.38;5040510;28;1286;-72
2024/03/28 11:14:05;;;;;;;;;;;;;;;20.61;31.42;97172.56;5015482;28;1486;-73
2024/03/28 11:16:31;;;;;;;;;;;;;;;20.64;31.51;97177.31;5016665;28;1922;-72
2024/03/28 11:19:00;;;;;;;;;;;;;;;20.63;31.35;97189.09;5000358;28;1124;-73
2024/03/28 11:21:26;;;;;;;;;;;;;;;20.87;30.89;97187.38;4983189;28;1385;-73
2024/03/28 11:23:53;;;;;;;;;;;;;;;20.80;31.15;97188.44;4983565;28;1461;-72
2024/03/28 11:26:22;;;;;;;;;;;;;;;20.74;31.17;97173.31;5000788;28;961;-72
2024/03/28 11:28:48;;;;;;;;;;;;;;;20.71;31.40;97179.09;4984073;28;1031;-72
2024/03/28 11:31:23;;;;;;;;;;;;;;;20.45;32.17;97184.00;4998273;28;1449;-72
2024/03/28 11:33:57;;;;;;;;;;;;;;;20.77;31.75;97183.69;5016244;28;958;-72
2024/03/28 11:36:26;;;;;;;;;;;;;;;20.65;31.98;97187.38;5000070;28;1910;-72
2024/03/28 11:38:51;;;;;;;;;;;;;;;20.47;32.19;97187.22;4999789;28;950;-72
2024/03/28 11:41:17;;;;;;;;;;;;;;;20.77;31.69;97189.34;5014346;28;1330;-72
2024/03/28 11:43:44;;;;;;;;;;;;;;;20.97;31.00;97196.72;4983604;28;1451;-72
2024/03/28 11:46:10;;;;;;;;;;;;;;;20.79;31.33;97198.16;5040984;28;1011;-73
2024/03/28 11:48:36;;;;;;;;;;;;;;;21.01;31.27;97208.69;5077770;28;962;-73
2024/03/28 11:51:04;;;;;;;;;;;;;;;20.68;31.59;97202.63;5041979;28;1390;-72
2024/03/28 11:53:30;;;;;;;;;;;;;;;20.81;31.19;97189.22;5077673;28;963;-73
2024/03/28 11:55:56;;;;;;;;;;;;;;;20.61;31.60;97181.03;5043461;28;1914;-73
2024/03/28 11:58:25;;;;;;;;;;;;;;;20.64;31.44;97185.78;5075624;28;1370;-72
2024/03/28 12:00:57;;;;;;;;;;;;;;;20.68;31.38;97189.28;5043527;28;937;-72
2024/03/28 12:03:23;;;;;;;;;;;;;;;20.29;32.46;97199.09;5059915;28;950;-72
2024/03/28 12:05:49;;;;;;;;;;;;;;;20.75;31.76;97203.16;5059651;28;1046;-73
2024/03/28 12:08:14;;;;;;;;;;;;;;;20.84;32.03;97210.16;5058305;28;1653;-72
2024/03/28 12:10:40;;;;;;;;;;;;;;;20.62;32.04;97205.22;5077745;28;870;-72
2024/03/28 12:13:08;;;;;;;;;;;;;;;20.55;32.07;97183.66;5060018;28;943;-73
2024/03/28 12:15:37;;;;;;;;;;;;;;;20.89;31.44;97173.59;5042895;28;1969;-72
2024/03/28 12:18:02;;;;;;;;;;;;;;;20.81;31.37;97189.22;5074702;28;1489;-72
2024/03/28 12:20:28;;;;;;;;;;;;;;;20.84;31.52;97177.00;5042910;28;945;-72
2024/03/28 12:22:54;;;;;;;;;;;;;;;20.92;31.09;97178.31;5077753;28;1039;-72
2024/03/28 12:25:20;;;;;;;;;;;;;;;20.87;31.35;97176.06;5059239;28;978;-72
2024/03/28 12:27:56;;;;;;;;;;;;;;;20.91;31.30;97181.59;5077284;28;937;-72
2024/03/28 12:30:22;;;;;;;;;;;;;;;20.72;31.39;97180.66;5058608;28;1254;-73
2024/03/28 12:32:57;;;;;;;;;;;;;;;20.55;31.59;97200.63;5059674;28;933;-72
2024/03/28 12:35:26;;;;;;;;;;;;;;;20.84;31.36;97193.19;5059100;28;1898;-72
2024/03/28 12:37:51;;;;;;;;;;;;;;;20.64;31.67;97199.13;5059080;28;1127;-73
2024/03/28 12:40:18;;;;;;;;;;;;;;;20.65;31.98;97190.19;5005630;28;1347;-72
2024/03/28 12:42:44;;;;;;;;;;;;;;;20.77;32.07;97195.00;5039513;28;927;-73
2024/03/28 12:45:12;;;;;;;;;;;;;;;21.00;31.68;97201.47;5056834;28;956;-72
2024/03/28 12:47:38;;;;;;;;;;;;;;;20.99;31.67;97194.25;5034677;28;967;-72
2024/03/28 12:50:04;;;;;;;;;;;;;;;20.76;31.84;97207.56;5034161;28;1443;-72
2024/03/28 12:52:30;;;;;;;;;;;;;;;20.79;31.84;97201.00;5034738;28;1030;-72
2024/03/28 12:54:55;;;;;;;;;;;;;;;20.97;31.38;97208.03;5034468;28;1975;-72
2024/03/28 12:57:21;;;;;;;;;;;;;;;20.64;31.92;97224.56;5034320;28;994;-73
2024/03/28 12:59:46;;;;;;;;;;;;;;;20.84;31.43;97229.94;5046930;28;1346;-72
2024/03/28 13:02:12;;;;;;;;;;;;;;;20.73;31.60;97228.28;5053852;28;1116;-73